sensor_id;sensor_type;location;lat;lon;timestamp;P1;durP1;ratioP1;P2;durP2;ratioP2
54935;SDS011;40838;50.676;7.838;2023-02-15T00:02:01;60.35;;;24.40;;
54935;SDS011;40838;50.676;7.838;2023-02-15T00:04:29;58.55;;;24.33;;
54935;SDS011;40838;50.676;7.838;2023-02-15T00:07:11;55.92;;;23.65;;
54935;SDS011;40838;50.676;7.838;2023-02-15T00:09:39;58.70;;;25.48;;
54935;SDS011;40838;50.676;7.838;2023-02-15T00:12:05;60.55;;;24.35;;
54935;SDS011;40838;50.676;7.838;2023-02-15T00:14:32;63.50;;;25.85;;
54935;SDS011;40838;50.676;7.838;2023-02-15T00:16:59;56.22;;;24.10;;
54935;SDS011;40838;50.676;7.838;2023-02-15T00:19:26;60.55;;;24.50;;
54935;SDS011;40838;50.676;7.838;2023-02-15T00:21:53;52.92;;;24.73;;
54935;SDS011;40838;50.676;7.838;2023-02-15T00:24:22;58.05;;;23.88;;
54935;SDS011;40838;50.676;7.838;2023-02-15T00:26:49;59.53;;;24.75;;
54935;SDS011;40838;50.676;7.838;2023-02-15T00:29:16;55.08;;;24.33;;
54935;SDS011;40838;50.676;7.838;2023-02-15T00:31:47;60.00;;;23.83;;
54935;SDS011;40838;50.676;7.838;2023-02-15T00:34:15;53.45;;;22.45;;
54935;SDS011;40838;50.676;7.838;2023-02-15T00:36:44;55.53;;;23.35;;
54935;SDS011;40838;50.676;7.838;2023-02-15T00:39:13;56.95;;;22.92;;
54935;SDS011;40838;50.676;7.838;2023-02-15T00:41:42;50.95;;;22.10;;
54935;SDS011;40838;50.676;7.838;2023-02-15T00:44:10;57.00;;;23.02;;
54935;SDS011;40838;50.676;7.838;2023-02-15T00:46:37;51.67;;;22.35;;
54935;SDS011;40838;50.676;7.838;2023-02-15T00:49:08;50.78;;;21.60;;
54935;SDS011;40838;50.676;7.838;2023-02-15T00:51:37;56.75;;;23.42;;
54935;SDS011;40838;50.676;7.838;2023-02-15T00:54:04;57.67;;;23.40;;
54935;SDS011;40838;50.676;7.838;2023-02-15T00:56:31;58.88;;;23.30;;
54935;SDS011;40838;50.676;7.838;2023-02-15T00:59:01;54.08;;;22.23;;
54935;SDS011;40838;50.676;7.838;2023-02-15T01:01:28;52.03;;;21.38;;
54935;SDS011;40838;50.676;7.838;2023-02-15T01:03:55;56.78;;;23.20;;
54935;SDS011;40838;50.676;7.838;2023-02-15T01:06:21;60.63;;;23.75;;
54935;SDS011;40838;50.676;7.838;2023-02-15T01:08:48;48.60;;;20.92;;
54935;SDS011;40838;50.676;7.838;2023-02-15T01:11:16;51.33;;;19.88;;
54935;SDS011;40838;50.676;7.838;2023-02-15T01:13:47;53.80;;;21.08;;
54935;SDS011;40838;50.676;7.838;2023-02-15T01:16:17;49.90;;;21.35;;
54935;SDS011;40838;50.676;7.838;2023-02-15T01:18:44;52.58;;;23.67;;
54935;SDS011;40838;50.676;7.838;2023-02-15T01:21:11;49.22;;;20.38;;
54935;SDS011;40838;50.676;7.838;2023-02-15T01:23:42;51.75;;;20.92;;
54935;SDS011;40838;50.676;7.838;2023-02-15T01:26:11;53.95;;;20.10;;
54935;SDS011;40838;50.676;7.838;2023-02-15T01:28:39;57.72;;;21.63;;
54935;SDS011;40838;50.676;7.838;2023-02-15T01:31:06;50.08;;;19.90;;
54935;SDS011;40838;50.676;7.838;2023-02-15T01:33:36;51.03;;;19.15;;
54935;SDS011;40838;50.676;7.838;2023-02-15T01:36:05;53.38;;;21.23;;
54935;SDS011;40838;50.676;7.838;2023-02-15T01:38:32;55.20;;;20.50;;
54935;SDS011;40838;50.676;7.838;2023-02-15T01:41:00;59.58;;;22.88;;
54935;SDS011;40838;50.676;7.838;2023-02-15T01:43:41;54.72;;;21.27;;
54935;SDS011;40838;50.676;7.838;2023-02-15T01:46:12;59.10;;;21.85;;
54935;SDS011;40838;50.676;7.838;2023-02-15T01:48:43;52.67;;;20.60;;
54935;SDS011;40838;50.676;7.838;2023-02-15T01:51:13;54.47;;;20.90;;
54935;SDS011;40838;50.676;7.838;2023-02-15T01:53:45;54.25;;;20.15;;
54935;SDS011;40838;50.676;7.838;2023-02-15T01:56:17;58.25;;;20.63;;
54935;SDS011;40838;50.676;7.838;2023-02-15T01:58:48;62.97;;;22.85;;
54935;SDS011;40838;50.676;7.838;2023-02-15T02:01:17;54.83;;;21.38;;
54935;SDS011;40838;50.676;7.838;2023-02-15T02:03:49;47.40;;;19.02;;
54935;SDS011;40838;50.676;7.838;2023-02-15T02:06:23;53.65;;;18.25;;
54935;SDS011;40838;50.676;7.838;2023-02-15T02:08:51;53.97;;;20.60;;
54935;SDS011;40838;50.676;7.838;2023-02-15T02:11:19;50.78;;;19.98;;
54935;SDS011;40838;50.676;7.838;2023-02-15T02:13:46;52.58;;;19.70;;
54935;SDS011;40838;50.676;7.838;2023-02-15T02:16:15;46.58;;;18.80;;
54935;SDS011;40838;50.676;7.838;2023-02-15T02:18:50;49.42;;;19.48;;
54935;SDS011;40838;50.676;7.838;2023-02-15T02:24:52;55.42;;;20.85;;
54935;SDS011;40838;50.676;7.838;2023-02-15T02:27:40;49.28;;;17.08;;
54935;SDS011;40838;50.676;7.838;2023-02-15T02:36:15;50.33;;;18.58;;
54935;SDS011;40838;50.676;7.838;2023-02-15T02:38:49;53.05;;;19.70;;
54935;SDS011;40838;50.676;7.838;2023-02-15T02:41:31;44.78;;;19.33;;
54935;SDS011;40838;50.676;7.838;2023-02-15T02:44:05;47.55;;;17.30;;
54935;SDS011;40838;50.676;7.838;2023-02-15T02:46:41;47.53;;;16.90;;
54935;SDS011;40838;50.676;7.838;2023-02-15T02:49:14;44.25;;;17.15;;
54935;SDS011;40838;50.676;7.838;2023-02-15T02:51:41;43.03;;;18.10;;
54935;SDS011;40838;50.676;7.838;2023-02-15T02:54:08;50.08;;;18.35;;
54935;SDS011;40838;50.676;7.838;2023-02-15T02:56:39;38.83;;;16.90;;
54935;SDS011;40838;50.676;7.838;2023-02-15T02:59:13;38.05;;;15.10;;
54935;SDS011;40838;50.676;7.838;2023-02-15T03:04:19;41.10;;;16.35;;
54935;SDS011;40838;50.676;7.838;2023-02-15T03:06:50;33.95;;;14.82;;
54935;SDS011;40838;50.676;7.838;2023-02-15T03:09:25;40.10;;;15.60;;
54935;SDS011;40838;50.676;7.838;2023-02-15T03:12:06;40.45;;;14.23;;
54935;SDS011;40838;50.676;7.838;2023-02-15T03:14:38;39.17;;;15.85;;
54935;SDS011;40838;50.676;7.838;2023-02-15T03:17:09;40.60;;;15.88;;
54935;SDS011;40838;50.676;7.838;2023-02-15T03:19:40;33.60;;;13.18;;
54935;SDS011;40838;50.676;7.838;2023-02-15T03:22:17;40.05;;;14.27;;
54935;SDS011;40838;50.676;7.838;2023-02-15T03:24:50;39.65;;;13.82;;
54935;SDS011;40838;50.676;7.838;2023-02-15T03:27:24;40.80;;;15.85;;
54935;SDS011;40838;50.676;7.838;2023-02-15T03:29:55;37.05;;;16.35;;
54935;SDS011;40838;50.676;7.838;2023-02-15T03:32:25;40.28;;;15.30;;
54935;SDS011;40838;50.676;7.838;2023-02-15T03:34:57;34.97;;;14.73;;
54935;SDS011;40838;50.676;7.838;2023-02-15T03:37:25;41.53;;;15.35;;
54935;SDS011;40838;50.676;7.838;2023-02-15T03:40:00;40.58;;;14.88;;
54935;SDS011;40838;50.676;7.838;2023-02-15T03:42:47;37.95;;;15.27;;
54935;SDS011;40838;50.676;7.838;2023-02-15T03:45:20;41.92;;;15.63;;
54935;SDS011;40838;50.676;7.838;2023-02-15T03:47:51;48.17;;;17.33;;
54935;SDS011;40838;50.676;7.838;2023-02-15T03:50:24;43.78;;;15.23;;
54935;SDS011;40838;50.676;7.838;2023-02-15T03:53:11;40.58;;;14.55;;
54935;SDS011;40838;50.676;7.838;2023-02-15T03:55:45;46.00;;;15.30;;
54935;SDS011;40838;50.676;7.838;2023-02-15T03:58:13;37.83;;;13.55;;
54935;SDS011;40838;50.676;7.838;2023-02-15T04:00:58;44.85;;;14.63;;
54935;SDS011;40838;50.676;7.838;2023-02-15T04:03:44;35.88;;;11.90;;
54935;SDS011;40838;50.676;7.838;2023-02-15T04:06:17;39.42;;;15.70;;
54935;SDS011;40838;50.676;7.838;2023-02-15T04:08:44;41.22;;;13.55;;
54935;SDS011;40838;50.676;7.838;2023-02-15T04:11:28;37.58;;;15.20;;
54935;SDS011;40838;50.676;7.838;2023-02-15T04:13:56;46.55;;;13.52;;
54935;SDS011;40838;50.676;7.838;2023-02-15T04:16:24;42.72;;;14.15;;
54935;SDS011;40838;50.676;7.838;2023-02-15T04:18:52;46.78;;;16.20;;
54935;SDS011;40838;50.676;7.838;2023-02-15T04:21:37;41.20;;;15.55;;
54935;SDS011;40838;50.676;7.838;2023-02-15T04:24:22;50.25;;;17.15;;
54935;SDS011;40838;50.676;7.838;2023-02-15T04:27:06;33.17;;;13.88;;
54935;SDS011;40838;50.676;7.838;2023-02-15T04:29:32;43.10;;;14.45;;
54935;SDS011;40838;50.676;7.838;2023-02-15T04:32:00;41.20;;;14.18;;
54935;SDS011;40838;50.676;7.838;2023-02-15T04:34:27;38.08;;;13.60;;
54935;SDS011;40838;50.676;7.838;2023-02-15T04:36:55;42.47;;;14.68;;
54935;SDS011;40838;50.676;7.838;2023-02-15T04:39:22;49.08;;;16.83;;
54935;SDS011;40838;50.676;7.838;2023-02-15T04:41:49;42.88;;;15.32;;
54935;SDS011;40838;50.676;7.838;2023-02-15T04:44:16;51.05;;;15.57;;
54935;SDS011;40838;50.676;7.838;2023-02-15T04:46:43;48.88;;;17.77;;
54935;SDS011;40838;50.676;7.838;2023-02-15T04:49:10;41.53;;;16.67;;
54935;SDS011;40838;50.676;7.838;2023-02-15T04:51:39;38.35;;;12.35;;
54935;SDS011;40838;50.676;7.838;2023-02-15T04:54:07;44.95;;;16.75;;
54935;SDS011;40838;50.676;7.838;2023-02-15T04:56:34;41.15;;;15.27;;
54935;SDS011;40838;50.676;7.838;2023-02-15T04:59:03;41.33;;;14.63;;
54935;SDS011;40838;50.676;7.838;2023-02-15T05:01:31;52.13;;;16.15;;
54935;SDS011;40838;50.676;7.838;2023-02-15T05:03:59;45.72;;;15.02;;
54935;SDS011;40838;50.676;7.838;2023-02-15T05:06:26;35.05;;;12.40;;
54935;SDS011;40838;50.676;7.838;2023-02-15T05:08:52;35.88;;;13.00;;
54935;SDS011;40838;50.676;7.838;2023-02-15T05:11:21;46.50;;;13.75;;
54935;SDS011;40838;50.676;7.838;2023-02-15T05:13:48;38.03;;;13.23;;
54935;SDS011;40838;50.676;7.838;2023-02-15T05:16:17;34.45;;;13.38;;
54935;SDS011;40838;50.676;7.838;2023-02-15T05:18:43;37.40;;;13.60;;
54935;SDS011;40838;50.676;7.838;2023-02-15T05:21:10;41.17;;;14.40;;
54935;SDS011;40838;50.676;7.838;2023-02-15T05:23:43;43.33;;;15.30;;
54935;SDS011;40838;50.676;7.838;2023-02-15T05:26:10;32.95;;;12.40;;
54935;SDS011;40838;50.676;7.838;2023-02-15T05:28:57;47.45;;;14.38;;
54935;SDS011;40838;50.676;7.838;2023-02-15T05:31:24;39.97;;;14.02;;
54935;SDS011;40838;50.676;7.838;2023-02-15T05:33:51;37.78;;;12.73;;
54935;SDS011;40838;50.676;7.838;2023-02-15T05:36:17;35.20;;;12.63;;
54935;SDS011;40838;50.676;7.838;2023-02-15T05:38:44;38.65;;;15.00;;
54935;SDS011;40838;50.676;7.838;2023-02-15T05:41:11;40.47;;;14.63;;
54935;SDS011;40838;50.676;7.838;2023-02-15T05:43:38;46.38;;;15.55;;
54935;SDS011;40838;50.676;7.838;2023-02-15T05:46:07;44.92;;;14.25;;
54935;SDS011;40838;50.676;7.838;2023-02-15T05:48:34;39.15;;;13.48;;
54935;SDS011;40838;50.676;7.838;2023-02-15T05:51:03;39.22;;;13.18;;
54935;SDS011;40838;50.676;7.838;2023-02-15T05:53:32;33.47;;;13.60;;
54935;SDS011;40838;50.676;7.838;2023-02-15T05:56:01;49.03;;;15.18;;
54935;SDS011;40838;50.676;7.838;2023-02-15T05:58:29;44.45;;;14.77;;
54935;SDS011;40838;50.676;7.838;2023-02-15T06:00:56;41.30;;;15.15;;
54935;SDS011;40838;50.676;7.838;2023-02-15T06:03:25;39.10;;;15.10;;
54935;SDS011;40838;50.676;7.838;2023-02-15T06:05:53;47.78;;;15.68;;
54935;SDS011;40838;50.676;7.838;2023-02-15T06:08:20;46.10;;;14.82;;
54935;SDS011;40838;50.676;7.838;2023-02-15T06:10:47;50.25;;;15.63;;
54935;SDS011;40838;50.676;7.838;2023-02-15T06:13:14;43.55;;;14.85;;
54935;SDS011;40838;50.676;7.838;2023-02-15T06:15:41;46.90;;;15.15;;
54935;SDS011;40838;50.676;7.838;2023-02-15T06:18:08;41.80;;;12.88;;
54935;SDS011;40838;50.676;7.838;2023-02-15T06:20:37;45.70;;;14.23;;
54935;SDS011;40838;50.676;7.838;2023-02-15T06:23:04;46.20;;;13.93;;
54935;SDS011;40838;50.676;7.838;2023-02-15T06:25:31;46.90;;;15.32;;
54935;SDS011;40838;50.676;7.838;2023-02-15T06:27:58;42.53;;;16.27;;
54935;SDS011;40838;50.676;7.838;2023-02-15T06:30:28;46.55;;;15.70;;
54935;SDS011;40838;50.676;7.838;2023-02-15T06:32:54;37.40;;;14.30;;
54935;SDS011;40838;50.676;7.838;2023-02-15T06:35:21;41.63;;;15.68;;
54935;SDS011;40838;50.676;7.838;2023-02-15T06:37:49;32.85;;;12.32;;
54935;SDS011;40838;50.676;7.838;2023-02-15T06:40:16;38.30;;;12.20;;
54935;SDS011;40838;50.676;7.838;2023-02-15T06:42:43;42.28;;;12.88;;
54935;SDS011;40838;50.676;7.838;2023-02-15T06:45:10;32.55;;;12.50;;
54935;SDS011;40838;50.676;7.838;2023-02-15T06:47:38;38.45;;;12.43;;
54935;SDS011;40838;50.676;7.838;2023-02-15T06:50:05;42.38;;;14.40;;
54935;SDS011;40838;50.676;7.838;2023-02-15T06:52:33;46.42;;;13.38;;
54935;SDS011;40838;50.676;7.838;2023-02-15T06:55:06;34.03;;;11.80;;
54935;SDS011;40838;50.676;7.838;2023-02-15T06:57:33;35.00;;;13.27;;
54935;SDS011;40838;50.676;7.838;2023-02-15T07:00:00;38.05;;;13.25;;
54935;SDS011;40838;50.676;7.838;2023-02-15T07:02:30;34.92;;;12.02;;
54935;SDS011;40838;50.676;7.838;2023-02-15T07:04:56;37.88;;;13.10;;
54935;SDS011;40838;50.676;7.838;2023-02-15T07:07:23;32.88;;;11.80;;
54935;SDS011;40838;50.676;7.838;2023-02-15T07:09:50;32.72;;;12.10;;
54935;SDS011;40838;50.676;7.838;2023-02-15T07:12:18;38.80;;;14.38;;
54935;SDS011;40838;50.676;7.838;2023-02-15T07:15:04;39.15;;;14.73;;
54935;SDS011;40838;50.676;7.838;2023-02-15T07:17:33;27.35;;;10.77;;
54935;SDS011;40838;50.676;7.838;2023-02-15T07:20:00;32.45;;;12.40;;
54935;SDS011;40838;50.676;7.838;2023-02-15T07:22:27;32.05;;;11.80;;
54935;SDS011;40838;50.676;7.838;2023-02-15T07:24:55;34.10;;;13.00;;
54935;SDS011;40838;50.676;7.838;2023-02-15T07:27:23;41.03;;;12.35;;
54935;SDS011;40838;50.676;7.838;2023-02-15T07:29:50;23.73;;;9.52;;
54935;SDS011;40838;50.676;7.838;2023-02-15T07:32:17;34.65;;;12.82;;
54935;SDS011;40838;50.676;7.838;2023-02-15T07:34:44;30.38;;;12.00;;
54935;SDS011;40838;50.676;7.838;2023-02-15T07:37:11;35.03;;;12.68;;
54935;SDS011;40838;50.676;7.838;2023-02-15T07:39:37;35.75;;;12.55;;
54935;SDS011;40838;50.676;7.838;2023-02-15T07:42:06;28.23;;;11.40;;
54935;SDS011;40838;50.676;7.838;2023-02-15T07:44:36;31.30;;;11.82;;
54935;SDS011;40838;50.676;7.838;2023-02-15T07:47:03;30.33;;;11.40;;
54935;SDS011;40838;50.676;7.838;2023-02-15T07:49:33;28.98;;;11.95;;
54935;SDS011;40838;50.676;7.838;2023-02-15T07:52:00;33.22;;;11.45;;
54935;SDS011;40838;50.676;7.838;2023-02-15T07:54:27;30.92;;;11.63;;
54935;SDS011;40838;50.676;7.838;2023-02-15T07:56:54;28.15;;;11.63;;
54935;SDS011;40838;50.676;7.838;2023-02-15T07:59:21;30.77;;;12.55;;
54935;SDS011;40838;50.676;7.838;2023-02-15T08:01:50;28.92;;;11.35;;
54935;SDS011;40838;50.676;7.838;2023-02-15T08:04:19;25.90;;;9.20;;
54935;SDS011;40838;50.676;7.838;2023-02-15T08:06:45;21.67;;;9.15;;
54935;SDS011;40838;50.676;7.838;2023-02-15T08:09:12;24.35;;;10.88;;
54935;SDS011;40838;50.676;7.838;2023-02-15T08:11:39;27.73;;;9.13;;
54935;SDS011;40838;50.676;7.838;2023-02-15T08:14:07;25.88;;;10.70;;
54935;SDS011;40838;50.676;7.838;2023-02-15T08:16:37;21.98;;;9.05;;
54935;SDS011;40838;50.676;7.838;2023-02-15T08:19:08;26.60;;;11.02;;
54935;SDS011;40838;50.676;7.838;2023-02-15T08:21:37;21.05;;;9.60;;
54935;SDS011;40838;50.676;7.838;2023-02-15T08:24:05;25.15;;;10.70;;
54935;SDS011;40838;50.676;7.838;2023-02-15T08:26:33;19.45;;;9.63;;
54935;SDS011;40838;50.676;7.838;2023-02-15T08:29:01;19.38;;;9.18;;
54935;SDS011;40838;50.676;7.838;2023-02-15T08:31:28;19.55;;;8.90;;
54935;SDS011;40838;50.676;7.838;2023-02-15T08:34:15;18.40;;;8.20;;
54935;SDS011;40838;50.676;7.838;2023-02-15T08:36:43;15.82;;;8.43;;
54935;SDS011;40838;50.676;7.838;2023-02-15T08:39:11;16.65;;;8.48;;
54935;SDS011;40838;50.676;7.838;2023-02-15T08:41:41;17.20;;;8.07;;
54935;SDS011;40838;50.676;7.838;2023-02-15T08:44:09;17.85;;;9.00;;
54935;SDS011;40838;50.676;7.838;2023-02-15T08:46:38;16.15;;;7.97;;
54935;SDS011;40838;50.676;7.838;2023-02-15T08:49:07;16.98;;;9.07;;
54935;SDS011;40838;50.676;7.838;2023-02-15T08:51:36;16.17;;;7.07;;
54935;SDS011;40838;50.676;7.838;2023-02-15T08:54:05;15.85;;;7.65;;
54935;SDS011;40838;50.676;7.838;2023-02-15T08:56:37;14.85;;;7.70;;
54935;SDS011;40838;50.676;7.838;2023-02-15T08:59:06;16.58;;;8.30;;
54935;SDS011;40838;50.676;7.838;2023-02-15T09:01:37;18.60;;;7.90;;
54935;SDS011;40838;50.676;7.838;2023-02-15T09:04:05;12.98;;;6.45;;
54935;SDS011;40838;50.676;7.838;2023-02-15T09:06:34;15.80;;;8.20;;
54935;SDS011;40838;50.676;7.838;2023-02-15T09:09:03;15.27;;;7.82;;
54935;SDS011;40838;50.676;7.838;2023-02-15T09:11:32;15.52;;;7.15;;
54935;SDS011;40838;50.676;7.838;2023-02-15T09:14:00;16.17;;;8.05;;
54935;SDS011;40838;50.676;7.838;2023-02-15T09:16:30;12.50;;;6.53;;
54935;SDS011;40838;50.676;7.838;2023-02-15T09:18:58;19.02;;;8.10;;
54935;SDS011;40838;50.676;7.838;2023-02-15T09:21:26;14.25;;;8.32;;
54935;SDS011;40838;50.676;7.838;2023-02-15T09:23:56;15.73;;;7.88;;
54935;SDS011;40838;50.676;7.838;2023-02-15T09:26:25;15.75;;;7.40;;
54935;SDS011;40838;50.676;7.838;2023-02-15T09:28:54;14.45;;;7.75;;
54935;SDS011;40838;50.676;7.838;2023-02-15T09:31:24;14.55;;;7.85;;
54935;SDS011;40838;50.676;7.838;2023-02-15T09:33:52;13.38;;;7.03;;
54935;SDS011;40838;50.676;7.838;2023-02-15T09:36:22;13.60;;;7.65;;
54935;SDS011;40838;50.676;7.838;2023-02-15T09:38:52;15.68;;;8.10;;
54935;SDS011;40838;50.676;7.838;2023-02-15T09:44:33;14.77;;;7.82;;
54935;SDS011;40838;50.676;7.838;2023-02-15T09:47:17;16.83;;;8.70;;
54935;SDS011;40838;50.676;7.838;2023-02-15T09:50:00;17.98;;;8.30;;
54935;SDS011;40838;50.676;7.838;2023-02-15T09:52:39;13.80;;;7.70;;
54935;SDS011;40838;50.676;7.838;2023-02-15T09:55:24;14.40;;;7.83;;
54935;SDS011;40838;50.676;7.838;2023-02-15T10:00:36;17.60;;;8.73;;
54935;SDS011;40838;50.676;7.838;2023-02-15T10:03:24;15.45;;;8.32;;
54935;SDS011;40838;50.676;7.838;2023-02-15T10:06:10;16.30;;;8.65;;
54935;SDS011;40838;50.676;7.838;2023-02-15T10:11:32;17.00;;;8.82;;
54935;SDS011;40838;50.676;7.838;2023-02-15T10:14:17;15.32;;;7.82;;
54935;SDS011;40838;50.676;7.838;2023-02-15T10:16:54;15.40;;;8.05;;
54935;SDS011;40838;50.676;7.838;2023-02-15T10:19:28;17.65;;;8.95;;
54935;SDS011;40838;50.676;7.838;2023-02-15T10:22:09;15.45;;;7.45;;
54935;SDS011;40838;50.676;7.838;2023-02-15T10:27:48;13.07;;;7.10;;
54935;SDS011;40838;50.676;7.838;2023-02-15T10:30:16;14.73;;;8.10;;
54935;SDS011;40838;50.676;7.838;2023-02-15T10:32:52;14.63;;;8.18;;
54935;SDS011;40838;50.676;7.838;2023-02-15T10:35:26;16.55;;;8.43;;
54935;SDS011;40838;50.676;7.838;2023-02-15T10:38:13;15.15;;;8.10;;
54935;SDS011;40838;50.676;7.838;2023-02-15T10:40:51;14.32;;;7.00;;
54935;SDS011;40838;50.676;7.838;2023-02-15T10:43:40;14.70;;;7.55;;
54935;SDS011;40838;50.676;7.838;2023-02-15T10:46:20;15.68;;;8.05;;
54935;SDS011;40838;50.676;7.838;2023-02-15T10:49:03;16.67;;;8.30;;
54935;SDS011;40838;50.676;7.838;2023-02-15T10:51:45;15.90;;;8.45;;
54935;SDS011;40838;50.676;7.838;2023-02-15T10:54:22;17.30;;;8.15;;
54935;SDS011;40838;50.676;7.838;2023-02-15T10:57:01;14.90;;;7.75;;
54935;SDS011;40838;50.676;7.838;2023-02-15T10:59:36;15.35;;;8.68;;
54935;SDS011;40838;50.676;7.838;2023-02-15T11:02:11;18.98;;;8.98;;
54935;SDS011;40838;50.676;7.838;2023-02-15T11:04:48;18.13;;;8.93;;
54935;SDS011;40838;50.676;7.838;2023-02-15T11:07:21;16.45;;;8.35;;
54935;SDS011;40838;50.676;7.838;2023-02-15T11:09:51;18.60;;;9.50;;
54935;SDS011;40838;50.676;7.838;2023-02-15T11:12:27;17.42;;;8.82;;
54935;SDS011;40838;50.676;7.838;2023-02-15T11:14:58;16.77;;;8.52;;
54935;SDS011;40838;50.676;7.838;2023-02-15T11:17:33;17.60;;;8.48;;
54935;SDS011;40838;50.676;7.838;2023-02-15T11:20:08;18.05;;;8.93;;
54935;SDS011;40838;50.676;7.838;2023-02-15T11:22:43;16.38;;;8.70;;
54935;SDS011;40838;50.676;7.838;2023-02-15T11:25:16;13.32;;;7.40;;
54935;SDS011;40838;50.676;7.838;2023-02-15T11:27:46;17.27;;;9.15;;
54935;SDS011;40838;50.676;7.838;2023-02-15T11:30:18;16.85;;;8.90;;
54935;SDS011;40838;50.676;7.838;2023-02-15T11:32:47;17.70;;;8.77;;
54935;SDS011;40838;50.676;7.838;2023-02-15T11:35:19;16.35;;;9.02;;
54935;SDS011;40838;50.676;7.838;2023-02-15T11:37:51;16.50;;;8.43;;
54935;SDS011;40838;50.676;7.838;2023-02-15T11:40:23;16.63;;;9.68;;
54935;SDS011;40838;50.676;7.838;2023-02-15T11:42:53;14.50;;;7.70;;
54935;SDS011;40838;50.676;7.838;2023-02-15T11:45:26;16.70;;;9.15;;
54935;SDS011;40838;50.676;7.838;2023-02-15T11:47:56;17.02;;;8.80;;
54935;SDS011;40838;50.676;7.838;2023-02-15T11:50:29;15.77;;;8.95;;
54935;SDS011;40838;50.676;7.838;2023-02-15T11:52:59;20.90;;;9.00;;
54935;SDS011;40838;50.676;7.838;2023-02-15T11:55:30;17.30;;;9.27;;
54935;SDS011;40838;50.676;7.838;2023-02-15T11:58:01;17.60;;;9.60;;
54935;SDS011;40838;50.676;7.838;2023-02-15T12:00:35;20.67;;;10.98;;
54935;SDS011;40838;50.676;7.838;2023-02-15T12:03:10;17.10;;;10.15;;
54935;SDS011;40838;50.676;7.838;2023-02-15T12:05:44;17.20;;;10.45;;
54935;SDS011;40838;50.676;7.838;2023-02-15T12:08:15;20.70;;;11.15;;
54935;SDS011;40838;50.676;7.838;2023-02-15T12:10:46;19.08;;;10.48;;
54935;SDS011;40838;50.676;7.838;2023-02-15T12:13:23;19.55;;;9.60;;
54935;SDS011;40838;50.676;7.838;2023-02-15T12:15:52;17.50;;;10.05;;
54935;SDS011;40838;50.676;7.838;2023-02-15T12:18:27;18.15;;;10.27;;
54935;SDS011;40838;50.676;7.838;2023-02-15T12:21:03;18.15;;;8.98;;
54935;SDS011;40838;50.676;7.838;2023-02-15T12:23:33;22.60;;;10.68;;
54935;SDS011;40838;50.676;7.838;2023-02-15T12:26:06;18.25;;;8.98;;
54935;SDS011;40838;50.676;7.838;2023-02-15T12:28:33;18.58;;;10.25;;
54935;SDS011;40838;50.676;7.838;2023-02-15T12:31:06;19.40;;;10.23;;
54935;SDS011;40838;50.676;7.838;2023-02-15T12:33:38;18.88;;;10.27;;
54935;SDS011;40838;50.676;7.838;2023-02-15T12:38:38;20.05;;;9.85;;
54935;SDS011;40838;50.676;7.838;2023-02-15T12:41:16;20.58;;;10.80;;
54935;SDS011;40838;50.676;7.838;2023-02-15T12:43:50;19.30;;;9.82;;
54935;SDS011;40838;50.676;7.838;2023-02-15T12:46:33;21.27;;;10.15;;
54935;SDS011;40838;50.676;7.838;2023-02-15T12:49:07;21.10;;;10.90;;
54935;SDS011;40838;50.676;7.838;2023-02-15T12:51:44;20.20;;;10.55;;
54935;SDS011;40838;50.676;7.838;2023-02-15T12:57:23;20.58;;;10.68;;
54935;SDS011;40838;50.676;7.838;2023-02-15T12:59:53;19.67;;;11.05;;
54935;SDS011;40838;50.676;7.838;2023-02-15T13:02:27;24.33;;;11.15;;
54935;SDS011;40838;50.676;7.838;2023-02-15T13:04:56;21.55;;;10.00;;
54935;SDS011;40838;50.676;7.838;2023-02-15T13:07:30;21.13;;;11.18;;
54935;SDS011;40838;50.676;7.838;2023-02-15T13:09:58;22.55;;;10.85;;
54935;SDS011;40838;50.676;7.838;2023-02-15T13:12:25;18.73;;;9.68;;
54935;SDS011;40838;50.676;7.838;2023-02-15T13:14:57;26.13;;;13.00;;
54935;SDS011;40838;50.676;7.838;2023-02-15T13:17:30;18.05;;;10.02;;
54935;SDS011;40838;50.676;7.838;2023-02-15T13:20:00;20.42;;;11.05;;
54935;SDS011;40838;50.676;7.838;2023-02-15T13:22:34;22.60;;;11.27;;
54935;SDS011;40838;50.676;7.838;2023-02-15T13:27:39;23.90;;;11.65;;
54935;SDS011;40838;50.676;7.838;2023-02-15T13:30:13;21.08;;;11.98;;
54935;SDS011;40838;50.676;7.838;2023-02-15T13:32:50;24.08;;;11.55;;
54935;SDS011;40838;50.676;7.838;2023-02-15T13:35:18;20.33;;;11.38;;
54935;SDS011;40838;50.676;7.838;2023-02-15T13:37:55;26.30;;;12.68;;
54935;SDS011;40838;50.676;7.838;2023-02-15T13:40:46;20.92;;;10.40;;
54935;SDS011;40838;50.676;7.838;2023-02-15T13:43:21;27.85;;;12.65;;
54935;SDS011;40838;50.676;7.838;2023-02-15T13:45:57;24.85;;;12.98;;
54935;SDS011;40838;50.676;7.838;2023-02-15T13:48:36;23.75;;;12.32;;
54935;SDS011;40838;50.676;7.838;2023-02-15T13:51:18;26.58;;;12.13;;
54935;SDS011;40838;50.676;7.838;2023-02-15T13:53:52;22.13;;;11.65;;
54935;SDS011;40838;50.676;7.838;2023-02-15T13:56:32;19.70;;;10.93;;
54935;SDS011;40838;50.676;7.838;2023-02-15T13:59:11;23.60;;;11.35;;
54935;SDS011;40838;50.676;7.838;2023-02-15T14:01:53;24.07;;;13.07;;
54935;SDS011;40838;50.676;7.838;2023-02-15T14:07:23;25.13;;;12.90;;
54935;SDS011;40838;50.676;7.838;2023-02-15T14:10:08;25.05;;;12.15;;
54935;SDS011;40838;50.676;7.838;2023-02-15T14:13:00;23.63;;;12.15;;
54935;SDS011;40838;50.676;7.838;2023-02-15T14:15:52;21.67;;;11.70;;
54935;SDS011;40838;50.676;7.838;2023-02-15T14:18:27;25.90;;;12.98;;
54935;SDS011;40838;50.676;7.838;2023-02-15T14:21:06;24.67;;;13.32;;
54935;SDS011;40838;50.676;7.838;2023-02-15T14:23:39;23.58;;;13.13;;
54935;SDS011;40838;50.676;7.838;2023-02-15T14:26:15;26.42;;;12.52;;
54935;SDS011;40838;50.676;7.838;2023-02-15T14:28:49;23.98;;;13.02;;
54935;SDS011;40838;50.676;7.838;2023-02-15T14:31:22;23.50;;;12.43;;
54935;SDS011;40838;50.676;7.838;2023-02-15T14:33:56;23.95;;;11.80;;
54935;SDS011;40838;50.676;7.838;2023-02-15T14:36:25;25.58;;;13.70;;
54935;SDS011;40838;50.676;7.838;2023-02-15T14:38:59;26.17;;;13.75;;
54935;SDS011;40838;50.676;7.838;2023-02-15T14:41:53;29.02;;;13.85;;
54935;SDS011;40838;50.676;7.838;2023-02-15T14:44:27;27.63;;;14.40;;
54935;SDS011;40838;50.676;7.838;2023-02-15T14:47:04;23.65;;;13.05;;
54935;SDS011;40838;50.676;7.838;2023-02-15T14:49:35;27.50;;;13.57;;
54935;SDS011;40838;50.676;7.838;2023-02-15T14:52:06;24.80;;;12.30;;
54935;SDS011;40838;50.676;7.838;2023-02-15T14:54:53;24.05;;;13.07;;
54935;SDS011;40838;50.676;7.838;2023-02-15T14:57:26;26.55;;;13.45;;
54935;SDS011;40838;50.676;7.838;2023-02-15T14:59:57;30.00;;;15.55;;
54935;SDS011;40838;50.676;7.838;2023-02-15T15:02:42;25.45;;;13.30;;
54935;SDS011;40838;50.676;7.838;2023-02-15T15:05:15;23.85;;;12.65;;
54935;SDS011;40838;50.676;7.838;2023-02-15T15:07:48;28.92;;;13.23;;
54935;SDS011;40838;50.676;7.838;2023-02-15T15:15:44;25.27;;;12.95;;
54935;SDS011;40838;50.676;7.838;2023-02-15T15:18:12;25.17;;;12.93;;
54935;SDS011;40838;50.676;7.838;2023-02-15T15:36:47;27.25;;;13.45;;
54935;SDS011;40838;50.676;7.838;2023-02-15T15:40:00;28.73;;;14.75;;
54935;SDS011;40838;50.676;7.838;2023-02-15T15:42:50;28.67;;;13.15;;
54935;SDS011;40838;50.676;7.838;2023-02-15T15:45:45;26.83;;;13.93;;
54935;SDS011;40838;50.676;7.838;2023-02-15T15:48:35;28.50;;;16.20;;
54935;SDS011;40838;50.676;7.838;2023-02-15T15:51:04;28.55;;;14.70;;